sensor_id;sensor_type;location;lat;lon;timestamp;temperature;humidity
11577;DHT22;5844;51.496;6.788;2024-02-15T00:00:12;12.50;55.90
11577;DHT22;5844;51.496;6.788;2024-02-15T00:02:38;12.50;52.20
11577;DHT22;5844;51.496;6.788;2024-02-15T00:07:39;12.50;52.20
11577;DHT22;5844;51.496;6.788;2024-02-15T00:10:06;12.50;54.70
11577;DHT22;5844;51.496;6.788;2024-02-15T00:12:32;12.50;54.70
11577;DHT22;5844;51.496;6.788;2024-02-15T00:14:57;12.50;56.20
11577;DHT22;5844;51.496;6.788;2024-02-15T00:17:24;12.50;56.30
11577;DHT22;5844;51.496;6.788;2024-02-15T00:19:50;12.40;57.80
11577;DHT22;5844;51.496;6.788;2024-02-15T00:22:16;12.40;58.80
11577;DHT22;5844;51.496;6.788;2024-02-15T00:24:42;12.40;61.80
11577;DHT22;5844;51.496;6.788;2024-02-15T00:27:08;12.50;63.90
11577;DHT22;5844;51.496;6.788;2024-02-15T00:29:34;12.50;63.30
11577;DHT22;5844;51.496;6.788;2024-02-15T00:32:00;12.50;66.10
11577;DHT22;5844;51.496;6.788;2024-02-15T00:34:26;12.40;66.20
11577;DHT22;5844;51.496;6.788;2024-02-15T00:36:52;12.50;66.40
11577;DHT22;5844;51.496;6.788;2024-02-15T00:39:18;12.40;71.10
11577;DHT22;5844;51.496;6.788;2024-02-15T00:41:45;12.40;73.90
11577;DHT22;5844;51.496;6.788;2024-02-15T00:44:11;12.30;74.30
11577;DHT22;5844;51.496;6.788;2024-02-15T00:46:39;12.30;76.80
11577;DHT22;5844;51.496;6.788;2024-02-15T00:49:07;12.30;79.50
11577;DHT22;5844;51.496;6.788;2024-02-15T00:51:33;12.40;80.20
11577;DHT22;5844;51.496;6.788;2024-02-15T00:54:00;12.40;78.30
11577;DHT22;5844;51.496;6.788;2024-02-15T00:56:26;12.40;78.00
11577;DHT22;5844;51.496;6.788;2024-02-15T00:58:53;12.50;71.00
11577;DHT22;5844;51.496;6.788;2024-02-15T01:01:18;12.50;68.10
11577;DHT22;5844;51.496;6.788;2024-02-15T01:03:44;12.50;66.00
11577;DHT22;5844;51.496;6.788;2024-02-15T01:06:09;12.40;67.50
11577;DHT22;5844;51.496;6.788;2024-02-15T01:08:35;12.40;67.90
11577;DHT22;5844;51.496;6.788;2024-02-15T01:11:02;12.40;69.50
11577;DHT22;5844;51.496;6.788;2024-02-15T01:13:28;12.40;69.90
11577;DHT22;5844;51.496;6.788;2024-02-15T01:15:53;12.50;67.10
11577;DHT22;5844;51.496;6.788;2024-02-15T01:18:19;12.40;64.70
11577;DHT22;5844;51.496;6.788;2024-02-15T01:20:45;12.40;68.00
11577;DHT22;5844;51.496;6.788;2024-02-15T01:23:10;12.40;69.40
11577;DHT22;5844;51.496;6.788;2024-02-15T01:25:36;12.40;70.00
11577;DHT22;5844;51.496;6.788;2024-02-15T01:28:02;12.40;69.80
11577;DHT22;5844;51.496;6.788;2024-02-15T01:30:28;12.40;69.00
11577;DHT22;5844;51.496;6.788;2024-02-15T01:32:54;12.40;67.20
11577;DHT22;5844;51.496;6.788;2024-02-15T01:35:20;12.40;67.30
11577;DHT22;5844;51.496;6.788;2024-02-15T01:37:46;12.40;68.30
11577;DHT22;5844;51.496;6.788;2024-02-15T01:40:12;12.40;69.20
11577;DHT22;5844;51.496;6.788;2024-02-15T01:42:38;12.40;71.30
11577;DHT22;5844;51.496;6.788;2024-02-15T01:45:05;12.40;72.50
11577;DHT22;5844;51.496;6.788;2024-02-15T01:47:31;12.40;74.20
11577;DHT22;5844;51.496;6.788;2024-02-15T01:49:57;12.40;75.60
11577;DHT22;5844;51.496;6.788;2024-02-15T01:52:23;12.30;77.10
11577;DHT22;5844;51.496;6.788;2024-02-15T01:54:51;12.30;79.00
11577;DHT22;5844;51.496;6.788;2024-02-15T01:57:18;12.30;78.20
11577;DHT22;5844;51.496;6.788;2024-02-15T01:59:46;12.30;79.80
11577;DHT22;5844;51.496;6.788;2024-02-15T02:02:14;12.30;80.60
11577;DHT22;5844;51.496;6.788;2024-02-15T02:04:42;12.30;80.30
11577;DHT22;5844;51.496;6.788;2024-02-15T02:07:08;12.30;80.40
11577;DHT22;5844;51.496;6.788;2024-02-15T02:09:34;12.20;81.00
11577;DHT22;5844;51.496;6.788;2024-02-15T02:12:00;12.20;81.90
11577;DHT22;5844;51.496;6.788;2024-02-15T02:14:26;12.20;82.60
11577;DHT22;5844;51.496;6.788;2024-02-15T02:16:51;12.20;82.70
11577;DHT22;5844;51.496;6.788;2024-02-15T02:19:17;12.20;82.40
11577;DHT22;5844;51.496;6.788;2024-02-15T02:21:43;12.20;81.50
11577;DHT22;5844;51.496;6.788;2024-02-15T02:24:21;12.20;82.80
11577;DHT22;5844;51.496;6.788;2024-02-15T02:26:47;12.20;81.50
11577;DHT22;5844;51.496;6.788;2024-02-15T02:29:15;12.20;81.90
11577;DHT22;5844;51.496;6.788;2024-02-15T02:31:40;12.20;83.00
11577;DHT22;5844;51.496;6.788;2024-02-15T02:34:08;12.20;77.10
11577;DHT22;5844;51.496;6.788;2024-02-15T02:36:34;12.20;78.00
11577;DHT22;5844;51.496;6.788;2024-02-15T02:39:00;12.20;75.40
11577;DHT22;5844;51.496;6.788;2024-02-15T02:41:29;12.30;73.70
11577;DHT22;5844;51.496;6.788;2024-02-15T02:43:56;12.20;73.10
11577;DHT22;5844;51.496;6.788;2024-02-15T02:46:22;12.20;71.30
11577;DHT22;5844;51.496;6.788;2024-02-15T02:48:47;12.20;71.50
11577;DHT22;5844;51.496;6.788;2024-02-15T02:51:13;12.20;70.50
11577;DHT22;5844;51.496;6.788;2024-02-15T02:53:38;12.30;65.10
11577;DHT22;5844;51.496;6.788;2024-02-15T02:56:04;12.20;65.40
11577;DHT22;5844;51.496;6.788;2024-02-15T02:58:30;12.30;61.30
11577;DHT22;5844;51.496;6.788;2024-02-15T03:00:56;12.30;57.70
11577;DHT22;5844;51.496;6.788;2024-02-15T03:03:23;12.40;55.60
11577;DHT22;5844;51.496;6.788;2024-02-15T03:05:49;12.40;53.40
11577;DHT22;5844;51.496;6.788;2024-02-15T03:08:15;12.30;52.60
11577;DHT22;5844;51.496;6.788;2024-02-15T03:10:42;12.30;52.60
11577;DHT22;5844;51.496;6.788;2024-02-15T03:13:08;12.30;53.20
11577;DHT22;5844;51.496;6.788;2024-02-15T03:15:37;12.30;50.60
11577;DHT22;5844;51.496;6.788;2024-02-15T03:18:03;12.30;50.40
11577;DHT22;5844;51.496;6.788;2024-02-15T03:20:38;12.30;50.40
11577;DHT22;5844;51.496;6.788;2024-02-15T03:23:04;12.40;49.30
11577;DHT22;5844;51.496;6.788;2024-02-15T03:25:29;12.40;48.60
11577;DHT22;5844;51.496;6.788;2024-02-15T03:27:59;12.40;48.20
11577;DHT22;5844;51.496;6.788;2024-02-15T03:30:29;12.40;46.60
11577;DHT22;5844;51.496;6.788;2024-02-15T03:32:57;12.40;43.70
11577;DHT22;5844;51.496;6.788;2024-02-15T03:35:25;12.40;41.00
11577;DHT22;5844;51.496;6.788;2024-02-15T03:37:52;12.40;40.40
11577;DHT22;5844;51.496;6.788;2024-02-15T03:40:19;12.50;39.10
11577;DHT22;5844;51.496;6.788;2024-02-15T03:42:45;12.50;37.70
11577;DHT22;5844;51.496;6.788;2024-02-15T03:45:12;12.50;38.30
11577;DHT22;5844;51.496;6.788;2024-02-15T03:47:38;12.50;36.80
11577;DHT22;5844;51.496;6.788;2024-02-15T03:50:05;12.50;36.10
11577;DHT22;5844;51.496;6.788;2024-02-15T03:52:31;12.50;31.60
11577;DHT22;5844;51.496;6.788;2024-02-15T03:54:57;12.50;32.20
11577;DHT22;5844;51.496;6.788;2024-02-15T03:57:24;12.50;32.70
11577;DHT22;5844;51.496;6.788;2024-02-15T03:59:49;12.50;31.00
11577;DHT22;5844;51.496;6.788;2024-02-15T04:02:23;12.50;32.40
11577;DHT22;5844;51.496;6.788;2024-02-15T04:04:52;12.50;31.10
11577;DHT22;5844;51.496;6.788;2024-02-15T04:07:18;12.50;29.30
11577;DHT22;5844;51.496;6.788;2024-02-15T04:09:45;12.50;29.70
11577;DHT22;5844;51.496;6.788;2024-02-15T04:12:11;12.50;29.40
11577;DHT22;5844;51.496;6.788;2024-02-15T04:14:37;12.50;27.30
11577;DHT22;5844;51.496;6.788;2024-02-15T04:17:06;12.50;27.30
11577;DHT22;5844;51.496;6.788;2024-02-15T04:19:32;12.50;28.10
11577;DHT22;5844;51.496;6.788;2024-02-15T04:21:58;12.50;27.20
11577;DHT22;5844;51.496;6.788;2024-02-15T04:24:25;12.50;27.00
11577;DHT22;5844;51.496;6.788;2024-02-15T04:26:51;12.40;28.60
11577;DHT22;5844;51.496;6.788;2024-02-15T04:29:17;12.40;28.80
11577;DHT22;5844;51.496;6.788;2024-02-15T04:31:45;12.40;30.20
11577;DHT22;5844;51.496;6.788;2024-02-15T04:34:15;12.40;31.10
11577;DHT22;5844;51.496;6.788;2024-02-15T04:36:40;12.40;29.40
11577;DHT22;5844;51.496;6.788;2024-02-15T04:39:08;12.40;30.40
11577;DHT22;5844;51.496;6.788;2024-02-15T04:41:35;12.40;29.50
11577;DHT22;5844;51.496;6.788;2024-02-15T04:44:04;12.40;29.90
11577;DHT22;5844;51.496;6.788;2024-02-15T04:46:33;12.40;29.40
11577;DHT22;5844;51.496;6.788;2024-02-15T04:49:00;12.50;28.70
11577;DHT22;5844;51.496;6.788;2024-02-15T04:51:27;12.40;27.20
11577;DHT22;5844;51.496;6.788;2024-02-15T04:53:53;12.50;27.40
11577;DHT22;5844;51.496;6.788;2024-02-15T04:56:18;12.50;26.30
11577;DHT22;5844;51.496;6.788;2024-02-15T04:58:46;12.50;25.80
11577;DHT22;5844;51.496;6.788;2024-02-15T05:01:16;12.40;27.00
11577;DHT22;5844;51.496;6.788;2024-02-15T05:03:44;12.40;26.10
11577;DHT22;5844;51.496;6.788;2024-02-15T05:06:11;12.40;25.40
11577;DHT22;5844;51.496;6.788;2024-02-15T05:08:38;12.40;25.00
11577;DHT22;5844;51.496;6.788;2024-02-15T05:11:10;12.40;24.10
11577;DHT22;5844;51.496;6.788;2024-02-15T05:13:48;12.40;23.90
11577;DHT22;5844;51.496;6.788;2024-02-15T05:16:17;12.40;22.80
11577;DHT22;5844;51.496;6.788;2024-02-15T05:18:43;12.30;22.60
11577;DHT22;5844;51.496;6.788;2024-02-15T05:21:11;12.40;22.90
11577;DHT22;5844;51.496;6.788;2024-02-15T05:23:37;12.30;21.50
11577;DHT22;5844;51.496;6.788;2024-02-15T05:26:05;12.30;21.90
11577;DHT22;5844;51.496;6.788;2024-02-15T05:28:31;12.40;19.30
11577;DHT22;5844;51.496;6.788;2024-02-15T05:31:14;12.40;19.00
11577;DHT22;5844;51.496;6.788;2024-02-15T05:33:52;12.40;16.50
11577;DHT22;5844;51.496;6.788;2024-02-15T05:36:20;12.40;16.20
11577;DHT22;5844;51.496;6.788;2024-02-15T05:38:51;12.40;17.30
11577;DHT22;5844;51.496;6.788;2024-02-15T05:41:17;12.30;16.60
11577;DHT22;5844;51.496;6.788;2024-02-15T05:43:43;12.30;17.40
11577;DHT22;5844;51.496;6.788;2024-02-15T05:46:09;12.30;18.30
11577;DHT22;5844;51.496;6.788;2024-02-15T05:48:36;12.30;18.40
11577;DHT22;5844;51.496;6.788;2024-02-15T05:51:06;12.30;17.90
11577;DHT22;5844;51.496;6.788;2024-02-15T05:53:33;12.30;18.00
11577;DHT22;5844;51.496;6.788;2024-02-15T05:56:10;12.30;20.10
11577;DHT22;5844;51.496;6.788;2024-02-15T05:58:36;12.30;19.50
11577;DHT22;5844;51.496;6.788;2024-02-15T06:01:03;12.20;22.00
11577;DHT22;5844;51.496;6.788;2024-02-15T06:03:34;12.30;22.70
11577;DHT22;5844;51.496;6.788;2024-02-15T06:06:03;12.20;22.50
11577;DHT22;5844;51.496;6.788;2024-02-15T06:08:35;12.30;21.70
11577;DHT22;5844;51.496;6.788;2024-02-15T06:11:02;12.20;22.20
11577;DHT22;5844;51.496;6.788;2024-02-15T06:13:29;12.30;22.80
11577;DHT22;5844;51.496;6.788;2024-02-15T06:15:55;12.20;24.90
11577;DHT22;5844;51.496;6.788;2024-02-15T06:18:21;12.20;26.20
11577;DHT22;5844;51.496;6.788;2024-02-15T06:20:49;12.20;25.80
11577;DHT22;5844;51.496;6.788;2024-02-15T06:23:16;12.20;27.90
11577;DHT22;5844;51.496;6.788;2024-02-15T06:25:43;12.10;27.60
11577;DHT22;5844;51.496;6.788;2024-02-15T06:28:09;12.20;29.10
11577;DHT22;5844;51.496;6.788;2024-02-15T06:30:53;12.20;29.00
11577;DHT22;5844;51.496;6.788;2024-02-15T06:33:37;12.20;27.90
11577;DHT22;5844;51.496;6.788;2024-02-15T06:36:21;12.20;27.40
11577;DHT22;5844;51.496;6.788;2024-02-15T06:39:05;12.30;25.30
11577;DHT22;5844;51.496;6.788;2024-02-15T06:41:49;12.20;25.90
11577;DHT22;5844;51.496;6.788;2024-02-15T06:44:15;12.20;27.60
11577;DHT22;5844;51.496;6.788;2024-02-15T06:46:41;12.20;28.30
11577;DHT22;5844;51.496;6.788;2024-02-15T06:49:06;12.20;30.50
11577;DHT22;5844;51.496;6.788;2024-02-15T06:51:32;12.10;31.30
11577;DHT22;5844;51.496;6.788;2024-02-15T06:53:57;12.20;30.90
11577;DHT22;5844;51.496;6.788;2024-02-15T06:56:23;12.10;33.20
11577;DHT22;5844;51.496;6.788;2024-02-15T06:58:50;12.10;33.30
11577;DHT22;5844;51.496;6.788;2024-02-15T07:01:16;12.10;35.50
11577;DHT22;5844;51.496;6.788;2024-02-15T07:03:42;12.10;37.50
11577;DHT22;5844;51.496;6.788;2024-02-15T07:06:11;12.00;39.90
11577;DHT22;5844;51.496;6.788;2024-02-15T07:08:39;12.00;41.90
11577;DHT22;5844;51.496;6.788;2024-02-15T07:11:06;12.00;43.80
11577;DHT22;5844;51.496;6.788;2024-02-15T07:13:35;12.00;45.40
11577;DHT22;5844;51.496;6.788;2024-02-15T07:16:02;12.00;46.30
11577;DHT22;5844;51.496;6.788;2024-02-15T07:18:29;12.00;48.50
11577;DHT22;5844;51.496;6.788;2024-02-15T07:20:54;12.00;51.80
11577;DHT22;5844;51.496;6.788;2024-02-15T07:23:22;12.00;52.50
11577;DHT22;5844;51.496;6.788;2024-02-15T07:25:47;12.00;53.60
11577;DHT22;5844;51.496;6.788;2024-02-15T07:28:14;12.00;54.40
11577;DHT22;5844;51.496;6.788;2024-02-15T07:30:39;12.00;55.90
11577;DHT22;5844;51.496;6.788;2024-02-15T07:33:05;12.00;56.30
11577;DHT22;5844;51.496;6.788;2024-02-15T07:35:32;12.00;55.10
11577;DHT22;5844;51.496;6.788;2024-02-15T07:37:58;12.10;55.70
11577;DHT22;5844;51.496;6.788;2024-02-15T07:40:26;12.00;55.80
11577;DHT22;5844;51.496;6.788;2024-02-15T07:42:56;12.00;54.50
11577;DHT22;5844;51.496;6.788;2024-02-15T07:45:22;12.00;54.70
11577;DHT22;5844;51.496;6.788;2024-02-15T07:47:48;12.00;54.70
11577;DHT22;5844;51.496;6.788;2024-02-15T07:50:18;12.00;55.20
11577;DHT22;5844;51.496;6.788;2024-02-15T07:52:48;12.00;55.70
11577;DHT22;5844;51.496;6.788;2024-02-15T07:55:14;12.00;56.10
11577;DHT22;5844;51.496;6.788;2024-02-15T07:57:40;12.00;59.50
11577;DHT22;5844;51.496;6.788;2024-02-15T08:00:06;12.00;59.50
11577;DHT22;5844;51.496;6.788;2024-02-15T08:02:39;12.00;61.20
11577;DHT22;5844;51.496;6.788;2024-02-15T08:05:09;12.10;60.30
11577;DHT22;5844;51.496;6.788;2024-02-15T08:07:42;12.10;61.70
11577;DHT22;5844;51.496;6.788;2024-02-15T08:10:08;12.10;57.00
11577;DHT22;5844;51.496;6.788;2024-02-15T08:12:41;12.10;56.60
11577;DHT22;5844;51.496;6.788;2024-02-15T08:15:09;12.10;55.00
11577;DHT22;5844;51.496;6.788;2024-02-15T08:17:46;12.10;55.70
11577;DHT22;5844;51.496;6.788;2024-02-15T08:20:12;12.10;55.90
11577;DHT22;5844;51.496;6.788;2024-02-15T08:22:39;12.10;58.30
11577;DHT22;5844;51.496;6.788;2024-02-15T08:25:12;12.20;57.50
11577;DHT22;5844;51.496;6.788;2024-02-15T08:27:39;12.20;56.90
11577;DHT22;5844;51.496;6.788;2024-02-15T08:30:09;12.10;59.40
11577;DHT22;5844;51.496;6.788;2024-02-15T08:32:35;12.10;59.50
11577;DHT22;5844;51.496;6.788;2024-02-15T08:35:00;12.20;58.70
11577;DHT22;5844;51.496;6.788;2024-02-15T08:37:26;12.10;57.80
11577;DHT22;5844;51.496;6.788;2024-02-15T08:39:52;12.20;61.00
11577;DHT22;5844;51.496;6.788;2024-02-15T08:42:18;12.20;60.30
11577;DHT22;5844;51.496;6.788;2024-02-15T08:44:48;12.20;60.20
11577;DHT22;5844;51.496;6.788;2024-02-15T08:47:14;12.10;61.80
11577;DHT22;5844;51.496;6.788;2024-02-15T08:49:40;12.20;68.10
11577;DHT22;5844;51.496;6.788;2024-02-15T08:52:06;12.20;73.60
11577;DHT22;5844;51.496;6.788;2024-02-15T08:54:33;12.20;72.10
11577;DHT22;5844;51.496;6.788;2024-02-15T08:56:59;12.20;75.30
11577;DHT22;5844;51.496;6.788;2024-02-15T08:59:26;12.20;76.90
11577;DHT22;5844;51.496;6.788;2024-02-15T09:01:53;12.20;76.90
11577;DHT22;5844;51.496;6.788;2024-02-15T09:04:20;12.20;78.90
11577;DHT22;5844;51.496;6.788;2024-02-15T09:06:47;12.20;76.90
11577;DHT22;5844;51.496;6.788;2024-02-15T09:09:12;12.20;79.20
11577;DHT22;5844;51.496;6.788;2024-02-15T09:11:38;12.20;80.50
11577;DHT22;5844;51.496;6.788;2024-02-15T09:14:04;12.20;81.00
11577;DHT22;5844;51.496;6.788;2024-02-15T09:16:29;12.20;81.00
11577;DHT22;5844;51.496;6.788;2024-02-15T09:18:57;12.20;81.60
11577;DHT22;5844;51.496;6.788;2024-02-15T09:21:26;12.20;79.20
11577;DHT22;5844;51.496;6.788;2024-02-15T09:23:54;12.30;80.50
11577;DHT22;5844;51.496;6.788;2024-02-15T09:26:20;12.30;75.60
11577;DHT22;5844;51.496;6.788;2024-02-15T09:28:46;12.40;73.00
11577;DHT22;5844;51.496;6.788;2024-02-15T09:31:14;12.40;66.90
11577;DHT22;5844;51.496;6.788;2024-02-15T09:33:40;12.40;66.80
11577;DHT22;5844;51.496;6.788;2024-02-15T09:36:06;12.40;62.80
11577;DHT22;5844;51.496;6.788;2024-02-15T09:38:33;12.40;61.30
11577;DHT22;5844;51.496;6.788;2024-02-15T09:40:59;12.50;59.50
11577;DHT22;5844;51.496;6.788;2024-02-15T09:43:25;12.50;57.90
11577;DHT22;5844;51.496;6.788;2024-02-15T09:46:00;12.50;55.10
11577;DHT22;5844;51.496;6.788;2024-02-15T09:48:56;12.50;49.80
11577;DHT22;5844;51.496;6.788;2024-02-15T09:51:29;12.50;47.40
11577;DHT22;5844;51.496;6.788;2024-02-15T09:53:57;12.60;44.60
11577;DHT22;5844;51.496;6.788;2024-02-15T09:56:24;12.70;42.10
11577;DHT22;5844;51.496;6.788;2024-02-15T09:58:51;12.70;39.20
11577;DHT22;5844;51.496;6.788;2024-02-15T10:01:20;12.80;36.30
11577;DHT22;5844;51.496;6.788;2024-02-15T10:03:49;12.80;32.50
11577;DHT22;5844;51.496;6.788;2024-02-15T10:06:17;12.80;32.70
11577;DHT22;5844;51.496;6.788;2024-02-15T10:08:44;12.90;32.00
11577;DHT22;5844;51.496;6.788;2024-02-15T10:11:10;12.90;30.60
11577;DHT22;5844;51.496;6.788;2024-02-15T10:13:36;13.00;28.20
11577;DHT22;5844;51.496;6.788;2024-02-15T10:16:20;13.10;25.40
11577;DHT22;5844;51.496;6.788;2024-02-15T10:18:50;13.20;16.50
11577;DHT22;5844;51.496;6.788;2024-02-15T10:21:28;13.20;14.60
11577;DHT22;5844;51.496;6.788;2024-02-15T10:24:08;13.20;14.50
11577;DHT22;5844;51.496;6.788;2024-02-15T10:26:35;13.30;12.80
11577;DHT22;5844;51.496;6.788;2024-02-15T10:29:05;13.30;12.40
11577;DHT22;5844;51.496;6.788;2024-02-15T10:31:35;13.30;10.10
11577;DHT22;5844;51.496;6.788;2024-02-15T10:34:05;13.40;27.50
11577;DHT22;5844;51.496;6.788;2024-02-15T10:36:32;13.40;4.90
11577;DHT22;5844;51.496;6.788;2024-02-15T10:39:20;13.50;3.90
11577;DHT22;5844;51.496;6.788;2024-02-15T10:41:48;13.60;1.00
11577;DHT22;5844;51.496;6.788;2024-02-15T10:44:17;13.70;1.00
11577;DHT22;5844;51.496;6.788;2024-02-15T10:46:48;13.80;1.00
11577;DHT22;5844;51.496;6.788;2024-02-15T10:49:23;13.90;1.00
11577;DHT22;5844;51.496;6.788;2024-02-15T10:51:58;14.00;1.00
11577;DHT22;5844;51.496;6.788;2024-02-15T10:57:20;14.10;1.00
11577;DHT22;5844;51.496;6.788;2024-02-15T10:59:57;14.20;1.00
11577;DHT22;5844;51.496;6.788;2024-02-15T11:02:31;14.20;1.00
11577;DHT22;5844;51.496;6.788;2024-02-15T11:05:06;14.20;1.00
11577;DHT22;5844;51.496;6.788;2024-02-15T11:07:38;14.20;1.00
11577;DHT22;5844;51.496;6.788;2024-02-15T11:10:07;14.40;1.00
11577;DHT22;5844;51.496;6.788;2024-02-15T11:12:36;14.30;1.00
11577;DHT22;5844;51.496;6.788;2024-02-15T11:15:03;14.30;1.00
11577;DHT22;5844;51.496;6.788;2024-02-15T11:20:08;14.60;1.00
11577;DHT22;5844;51.496;6.788;2024-02-15T11:22:36;14.70;1.00
11577;DHT22;5844;51.496;6.788;2024-02-15T11:25:06;14.80;1.00
11577;DHT22;5844;51.496;6.788;2024-02-15T11:27:37;14.80;1.00
11577;DHT22;5844;51.496;6.788;2024-02-15T11:30:05;14.70;1.00
11577;DHT22;5844;51.496;6.788;2024-02-15T11:32:45;14.70;1.00
11577;DHT22;5844;51.496;6.788;2024-02-15T11:35:24;14.70;1.00
11577;DHT22;5844;51.496;6.788;2024-02-15T11:37:52;14.70;1.00
11577;DHT22;5844;51.496;6.788;2024-02-15T11:40:25;14.70;1.00
11577;DHT22;5844;51.496;6.788;2024-02-15T11:43:01;14.80;1.00
11577;DHT22;5844;51.496;6.788;2024-02-15T11:45:30;15.20;1.00
11577;DHT22;5844;51.496;6.788;2024-02-15T11:48:03;15.30;1.00
11577;DHT22;5844;51.496;6.788;2024-02-15T11:50:34;15.30;1.00
11577;DHT22;5844;51.496;6.788;2024-02-15T11:53:03;15.40;1.00
11577;DHT22;5844;51.496;6.788;2024-02-15T11:55:35;15.30;1.00
11577;DHT22;5844;51.496;6.788;2024-02-15T11:58:02;15.30;1.00
11577;DHT22;5844;51.496;6.788;2024-02-15T12:00:48;15.20;1.00
11577;DHT22;5844;51.496;6.788;2024-02-15T12:03:33;15.30;1.00
11577;DHT22;5844;51.496;6.788;2024-02-15T12:06:18;15.60;1.00
11577;DHT22;5844;51.496;6.788;2024-02-15T12:09:02;15.80;1.00
11577;DHT22;5844;51.496;6.788;2024-02-15T12:11:46;15.90;1.00
11577;DHT22;5844;51.496;6.788;2024-02-15T12:14:30;15.70;1.00
11577;DHT22;5844;51.496;6.788;2024-02-15T12:17:14;15.90;1.00
11577;DHT22;5844;51.496;6.788;2024-02-15T12:20:03;16.10;1.00
11577;DHT22;5844;51.496;6.788;2024-02-15T12:22:41;16.40;1.00
11577;DHT22;5844;51.496;6.788;2024-02-15T12:25:14;16.30;1.00
11577;DHT22;5844;51.496;6.788;2024-02-15T12:27:41;16.20;1.00
11577;DHT22;5844;51.496;6.788;2024-02-15T12:30:16;16.20;1.00
11577;DHT22;5844;51.496;6.788;2024-02-15T12:32:51;16.20;1.00
11577;DHT22;5844;51.496;6.788;2024-02-15T12:35:19;16.40;1.00
11577;DHT22;5844;51.496;6.788;2024-02-15T12:38:03;16.40;1.00
11577;DHT22;5844;51.496;6.788;2024-02-15T12:40:37;16.50;1.00
11577;DHT22;5844;51.496;6.788;2024-02-15T12:43:06;16.60;1.00
11577;DHT22;5844;51.496;6.788;2024-02-15T12:45:38;16.70;1.00
11577;DHT22;5844;51.496;6.788;2024-02-15T12:48:05;16.90;1.00
11577;DHT22;5844;51.496;6.788;2024-02-15T12:50:31;17.00;1.00
11577;DHT22;5844;51.496;6.788;2024-02-15T12:52:57;17.00;1.00
11577;DHT22;5844;51.496;6.788;2024-02-15T12:55:33;17.20;1.00
11577;DHT22;5844;51.496;6.788;2024-02-15T13:00:30;17.50;1.00
11577;DHT22;5844;51.496;6.788;2024-02-15T13:03:03;17.60;1.00
11577;DHT22;5844;51.496;6.788;2024-02-15T13:05:30;17.90;1.00
11577;DHT22;5844;51.496;6.788;2024-02-15T13:07:56;18.00;1.00
11577;DHT22;5844;51.496;6.788;2024-02-15T13:10:30;17.90;1.00
11577;DHT22;5844;51.496;6.788;2024-02-15T13:12:57;17.60;1.00
11577;DHT22;5844;51.496;6.788;2024-02-15T13:15:23;17.50;1.00
11577;DHT22;5844;51.496;6.788;2024-02-15T13:17:53;17.40;1.00
11577;DHT22;5844;51.496;6.788;2024-02-15T13:20:21;17.30;1.00
11577;DHT22;5844;51.496;6.788;2024-02-15T13:22:55;17.50;1.00
11577;DHT22;5844;51.496;6.788;2024-02-15T13:25:25;17.70;1.00
11577;DHT22;5844;51.496;6.788;2024-02-15T13:27:51;18.10;1.00
11577;DHT22;5844;51.496;6.788;2024-02-15T13:30:16;18.00;1.00
11577;DHT22;5844;51.496;6.788;2024-02-15T13:32:49;17.90;1.00
11577;DHT22;5844;51.496;6.788;2024-02-15T13:35:16;17.80;1.00
11577;DHT22;5844;51.496;6.788;2024-02-15T13:37:52;17.80;1.00
11577;DHT22;5844;51.496;6.788;2024-02-15T13:40:19;17.70;1.00
11577;DHT22;5844;51.496;6.788;2024-02-15T13:42:49;17.60;1.00
11577;DHT22;5844;51.496;6.788;2024-02-15T13:45:22;17.50;1.00
11577;DHT22;5844;51.496;6.788;2024-02-15T13:47:49;17.30;1.00
11577;DHT22;5844;51.496;6.788;2024-02-15T13:50:16;17.40;1.00
11577;DHT22;5844;51.496;6.788;2024-02-15T13:52:46;17.40;1.00
11577;DHT22;5844;51.496;6.788;2024-02-15T13:55:13;17.20;1.00
11577;DHT22;5844;51.496;6.788;2024-02-15T13:57:46;17.30;1.00
11577;DHT22;5844;51.496;6.788;2024-02-15T14:00:15;17.40;1.00
11577;DHT22;5844;51.496;6.788;2024-02-15T14:02:55;17.30;1.00
11577;DHT22;5844;51.496;6.788;2024-02-15T14:05:26;17.60;1.00
11577;DHT22;5844;51.496;6.788;2024-02-15T14:08:01;17.80;1.00
11577;DHT22;5844;51.496;6.788;2024-02-15T14:10:31;18.00;1.00
11577;DHT22;5844;51.496;6.788;2024-02-15T14:12:57;18.40;1.00
11577;DHT22;5844;51.496;6.788;2024-02-15T14:15:29;18.90;1.00
11577;DHT22;5844;51.496;6.788;2024-02-15T14:17:55;18.70;1.00
11577;DHT22;5844;51.496;6.788;2024-02-15T14:20:26;18.30;1.00
11577;DHT22;5844;51.496;6.788;2024-02-15T14:22:52;18.10;1.00
11577;DHT22;5844;51.496;6.788;2024-02-15T14:25:24;18.10;1.00
11577;DHT22;5844;51.496;6.788;2024-02-15T14:27:51;18.10;1.00
11577;DHT22;5844;51.496;6.788;2024-02-15T14:30:18;18.20;1.00
11577;DHT22;5844;51.496;6.788;2024-02-15T14:33:02;18.20;1.00
11577;DHT22;5844;51.496;6.788;2024-02-15T14:35:34;18.40;1.00
11577;DHT22;5844;51.496;6.788;2024-02-15T14:38:04;18.40;1.00
11577;DHT22;5844;51.496;6.788;2024-02-15T14:40:35;18.40;1.00
11577;DHT22;5844;51.496;6.788;2024-02-15T14:43:01;18.10;1.00
11577;DHT22;5844;51.496;6.788;2024-02-15T14:45:28;18.00;1.00
11577;DHT22;5844;51.496;6.788;2024-02-15T14:47:54;18.20;1.00
11577;DHT22;5844;51.496;6.788;2024-02-15T14:50:20;18.40;1.00
11577;DHT22;5844;51.496;6.788;2024-02-15T14:52:46;18.70;1.00
11577;DHT22;5844;51.496;6.788;2024-02-15T14:55:13;18.90;1.00
11577;DHT22;5844;51.496;6.788;2024-02-15T14:57:39;18.90;1.00
11577;DHT22;5844;51.496;6.788;2024-02-15T15:00:06;18.90;1.00
11577;DHT22;5844;51.496;6.788;2024-02-15T15:02:37;18.70;1.00
11577;DHT22;5844;51.496;6.788;2024-02-15T15:05:03;18.40;1.00
11577;DHT22;5844;51.496;6.788;2024-02-15T15:07:47;18.40;1.00
11577;DHT22;5844;51.496;6.788;2024-02-15T15:10:31;18.10;1.00
11577;DHT22;5844;51.496;6.788;2024-02-15T15:13:15;17.80;1.00
11577;DHT22;5844;51.496;6.788;2024-02-15T15:15:41;17.70;1.00
11577;DHT22;5844;51.496;6.788;2024-02-15T15:18:07;17.50;1.00
11577;DHT22;5844;51.496;6.788;2024-02-15T15:20:34;17.30;1.00
11577;DHT22;5844;51.496;6.788;2024-02-15T15:23:00;17.20;1.00
11577;DHT22;5844;51.496;6.788;2024-02-15T15:25:26;17.10;1.00
11577;DHT22;5844;51.496;6.788;2024-02-15T15:27:54;17.00;1.00
11577;DHT22;5844;51.496;6.788;2024-02-15T15:30:21;16.90;1.00
11577;DHT22;5844;51.496;6.788;2024-02-15T15:32:47;16.70;1.00
11577;DHT22;5844;51.496;6.788;2024-02-15T15:35:13;16.60;1.00
11577;DHT22;5844;51.496;6.788;2024-02-15T15:37:39;16.60;1.00
11577;DHT22;5844;51.496;6.788;2024-02-15T15:40:05;16.50;1.00
11577;DHT22;5844;51.496;6.788;2024-02-15T15:42:35;16.40;1.00
11577;DHT22;5844;51.496;6.788;2024-02-15T15:45:01;16.30;1.00
11577;DHT22;5844;51.496;6.788;2024-02-15T15:47:27;16.20;1.00
11577;DHT22;5844;51.496;6.788;2024-02-15T15:49:52;16.20;1.00
11577;DHT22;5844;51.496;6.788;2024-02-15T15:52:24;16.20;1.00
11577;DHT22;5844;51.496;6.788;2024-02-15T15:54:49;16.20;1.00
11577;DHT22;5844;51.496;6.788;2024-02-15T15:57:15;16.20;1.00
11577;DHT22;5844;51.496;6.788;2024-02-15T15:59:41;16.10;1.00
11577;DHT22;5844;51.496;6.788;2024-02-15T16:02:07;16.00;1.00
11577;DHT22;5844;51.496;6.788;2024-02-15T16:04:32;15.90;1.00
11577;DHT22;5844;51.496;6.788;2024-02-15T16:06:58;15.80;1.00
11577;DHT22;5844;51.496;6.788;2024-02-15T16:09:24;15.70;1.00
11577;DHT22;5844;51.496;6.788;2024-02-15T16:11:50;15.70;1.00